Time;durP1;ratioP1;P1;durP2;ratioP2;P2;SDS_P1;SDS_P2;PMS_P1;PMS_P2;Temp;Humidity;BMP_temperature;BMP_pressure;BME280_temperature;BME280_humidity;BME280_pressure;Samples;Min_cycle;Max_cycle;Signal;HPM_P1;HPM_P2
2021/03/20 00:00:59;;;;;;;20.45;14.15;;;;;;;5.16;53.15;95086.09;5110561;28;20637;-65
2021/03/20 00:03:26;;;;;;;20.08;13.65;;;;;;;5.30;53.33;95093.75;5111350;28;20202;-64
2021/03/20 00:05:53;;;;;;;20.00;14.02;;;;;;;5.38;53.16;95085.66;5110341;28;20198;-64
2021/03/20 00:08:27;;;;;;;18.38;13.52;;;;;;;5.52;53.48;95089.69;5111127;28;20290;-63
2021/03/20 00:10:54;;;;;;;20.45;14.50;;;;;;;5.42;53.23;95095.38;5110784;28;20194;-63
2021/03/20 00:13:23;;;;;;;21.30;14.63;;;;;;;5.43;53.51;95106.56;5110933;28;20229;-64
2021/03/20 00:15:53;;;;;;;19.15;14.57;;;;;;;5.38;53.67;95098.66;5110588;28;20690;-63
2021/03/20 00:18:21;;;;;;;33.90;22.17;;;;;;;5.39;53.06;95110.63;5110812;28;20271;-63
2021/03/20 00:20:51;;;;;;;28.70;18.73;;;;;;;5.39;53.25;95106.22;5110846;28;20289;-66
2021/03/20 00:23:18;;;;;;;24.48;17.17;;;;;;;5.27;53.84;95112.38;5110902;28;20698;-63
2021/03/20 00:25:45;;;;;;;20.58;14.70;;;;;;;5.36;53.66;95111.06;5110808;28;20205;-65
2021/03/20 00:28:23;;;;;;;25.10;15.55;;;;;;;5.25;53.63;95122.19;5110471;28;20190;-64
2021/03/20 00:30:53;;;;;;;19.42;14.90;;;;;;;5.20;53.54;95122.03;5110278;28;20681;-63
2021/03/20 00:33:21;;;;;;;22.13;15.38;;;;;;;5.20;54.11;95116.84;5110643;28;20608;-64
2021/03/20 00:35:49;;;;;;;20.88;14.63;;;;;;;5.35;53.38;95106.84;5116134;28;20232;-65
2021/03/20 00:38:16;;;;;;;22.17;15.32;;;;;;;5.35;53.08;95101.66;5109921;28;20314;-63
2021/03/20 00:40:42;;;;;;;23.02;16.23;;;;;;;5.36;53.42;95106.66;5110299;28;20190;-64
2021/03/20 00:43:10;;;;;;;24.77;17.30;;;;;;;5.11;53.46;95098.94;5110494;28;20183;-64
2021/03/20 00:45:37;;;;;;;27.15;17.48;;;;;;;5.20;53.41;95096.06;5110040;28;20277;-63
2021/03/20 00:48:17;;;;;;;25.48;17.17;;;;;;;5.30;53.57;95096.34;5110678;28;20665;-64
2021/03/20 00:50:44;;;;;;;27.63;17.83;;;;;;;5.41;53.69;95098.22;5108947;28;20289;-63
2021/03/20 00:53:16;;;;;;;27.30;18.40;;;;;;;5.55;53.08;95100.44;5109047;28;20227;-62
2021/03/20 00:55:43;;;;;;;27.90;17.40;;;;;;;5.44;52.96;95088.16;5109898;28;20626;-63
2021/03/20 00:58:41;;;;;;;26.08;17.77;;;;;;;5.47;53.39;95092.16;5110845;28;20264;-66
2021/03/20 01:01:13;;;;;;;26.50;17.85;;;;;;;5.48;53.07;95098.91;5109700;28;20700;-65
2021/03/20 01:03:41;;;;;;;27.75;18.13;;;;;;;5.45;53.08;95097.56;5110412;28;20920;-62
2021/03/20 01:06:11;;;;;;;26.38;17.20;;;;;;;5.28;53.38;95098.34;5110104;28;20237;-62
2021/03/20 01:08:37;;;;;;;27.85;18.15;;;;;;;5.48;53.43;95104.13;5109130;28;20190;-64
2021/03/20 01:11:04;;;;;;;26.60;17.75;;;;;;;5.48;53.28;95096.31;5109877;28;20683;-66
2021/03/20 01:13:31;;;;;;;24.50;17.00;;;;;;;5.48;53.57;95094.53;5110213;28;20205;-62
2021/03/20 01:15:58;;;;;;;30.63;18.60;;;;;;;5.48;53.40;95098.91;5110104;28;20289;-65
2021/03/20 01:18:25;;;;;;;28.15;18.15;;;;;;;5.56;53.47;95101.22;5110118;28;20193;-63
2021/03/20 01:20:52;;;;;;;31.10;21.60;;;;;;;5.36;53.79;95087.69;5110040;28;20206;-63
2021/03/20 01:23:19;;;;;;;30.02;20.63;;;;;;;5.32;53.83;95094.31;5110051;28;20194;-64
2021/03/20 01:25:46;;;;;;;28.92;20.00;;;;;;;5.42;54.31;95090.19;5109982;28;20190;-63
2021/03/20 01:28:12;;;;;;;30.38;20.45;;;;;;;5.45;54.49;95094.97;5110284;28;20516;-62
2021/03/20 01:30:42;;;;;;;30.58;21.10;;;;;;;5.42;54.61;95099.81;5109866;28;20248;-62
2021/03/20 01:33:08;;;;;;;28.67;20.40;;;;;;;5.41;54.63;95098.22;5110086;28;20229;-64
2021/03/20 01:35:40;;;;;;;28.02;19.83;;;;;;;5.42;54.97;95097.97;5109821;28;20676;-63
2021/03/20 01:38:07;;;;;;;28.15;19.73;;;;;;;5.32;55.08;95094.31;5110398;28;20692;-65
2021/03/20 01:40:41;;;;;;;28.00;19.80;;;;;;;5.03;56.27;95088.84;5109807;28;20206;-64
2021/03/20 01:43:09;;;;;;;27.77;19.63;;;;;;;5.08;56.23;95104.56;5110129;28;20191;-65
2021/03/20 01:45:37;;;;;;;31.30;20.10;;;;;;;5.04;56.43;95097.41;5108523;28;20563;-66
2021/03/20 01:48:28;;;;;;;27.65;19.52;;;;;;;5.10;56.38;95106.94;5110293;28;20203;-64
2021/03/20 01:51:02;;;;;;;26.83;19.15;;;;;;;5.18;56.45;95115.25;5113175;28;20187;-64
2021/03/20 01:53:38;;;;;;;29.13;19.30;;;;;;;5.26;56.32;95119.34;5113665;28;20285;-63
2021/03/20 01:56:08;;;;;;;28.92;19.75;;;;;;;5.05;56.70;95109.41;5113316;28;20232;-64
2021/03/20 01:58:37;;;;;;;30.88;21.08;;;;;;;5.04;56.75;95116.41;5113467;28;20202;-64
2021/03/20 02:01:14;;;;;;;32.15;21.25;;;;;;;5.12;56.94;95121.31;5113043;27;20700;-65
2021/03/20 02:03:41;;;;;;;32.40;23.45;;;;;;;4.96;57.52;95121.09;5113718;28;20205;-63
2021/03/20 02:06:08;;;;;;;61.55;46.03;;;;;;;4.98;57.49;95114.66;5115562;28;20245;-65
2021/03/20 02:08:40;;;;;;;54.67;42.25;;;;;;;4.93;57.74;95116.31;5113233;28;20270;-65
2021/03/20 02:11:16;;;;;;;47.72;34.95;;;;;;;5.01;57.60;95113.44;5113336;28;20198;-69
2021/03/20 02:14:08;;;;;;;48.70;35.25;;;;;;;4.98;57.09;95112.06;5113435;28;20216;-63
2021/03/20 02:16:46;;;;;;;53.72;37.65;;;;;;;4.84;57.88;95107.22;5088844;28;20301;-62
2021/03/20 02:19:15;;;;;;;48.60;33.60;;;;;;;4.97;57.72;95114.88;5113173;28;20567;-64
2021/03/20 02:21:50;;;;;;;39.97;27.77;;;;;;;5.13;57.23;95112.50;5112923;28;20201;-65
2021/03/20 02:24:25;;;;;;;33.70;23.20;;;;;;;5.05;57.22;95105.00;5113399;28;20189;-68
2021/03/20 02:27:09;;;;;;;31.23;22.42;;;;;;;5.10;57.44;95102.56;5112864;28;21051;-63
2021/03/20 02:29:57;;;;;;;32.13;22.63;;;;;;;5.01;57.89;95109.06;5112436;28;20194;-63
2021/03/20 02:32:50;;;;;;;34.15;22.38;;;;;;;5.01;57.96;95119.44;5113434;28;20199;-65
2021/03/20 02:35:23;;;;;;;36.80;23.00;;;;;;;5.00;57.77;95120.44;5112118;28;20411;-66
2021/03/20 02:38:25;;;;;;;30.85;21.38;;;;;;;4.93;57.74;95117.09;5113261;28;20327;-62
2021/03/20 02:41:19;;;;;;;31.73;21.25;;;;;;;4.99;57.69;95124.06;5096956;28;20198;-63
2021/03/20 02:43:51;;;;;;;34.70;22.13;;;;;;;5.14;57.50;95121.09;5112661;28;20218;-63
2021/03/20 02:46:33;;;;;;;32.67;22.80;;;;;;;5.10;57.45;95118.16;5112127;28;20293;-62
2021/03/20 02:49:08;;;;;;;31.27;22.27;;;;;;;5.14;57.26;95116.72;5112954;28;20289;-62
2021/03/20 02:51:47;;;;;;;33.50;22.58;;;;;;;5.05;57.43;95112.00;5111885;28;20186;-65
2021/03/20 02:54:30;;;;;;;29.05;21.45;;;;;;;5.01;57.56;95110.84;5112530;28;20732;-62
2021/03/20 02:57:17;;;;;;;33.53;23.83;;;;;;;5.06;57.77;95114.38;5112493;28;20741;-63
2021/03/20 02:59:51;;;;;;;44.78;32.22;;;;;;;4.87;58.07;95120.56;5110735;28;20209;-64
2021/03/20 03:02:19;;;;;;;37.22;24.75;;;;;;;4.80;58.44;95112.03;5112976;28;20198;-66
2021/03/20 03:05:08;;;;;;;36.42;25.02;;;;;;;4.91;58.54;95119.13;5111810;28;21024;-65
2021/03/20 03:07:46;;;;;;;35.05;23.13;;;;;;;4.94;58.38;95118.72;5112358;28;20602;-65
2021/03/20 03:10:26;;;;;;;35.53;23.58;;;;;;;4.93;58.23;95127.50;5111332;28;20281;-62
2021/03/20 03:13:07;;;;;;;34.10;22.13;;;;;;;4.98;57.91;95119.06;5112202;28;20682;-62
2021/03/20 03:15:38;;;;;;;35.05;23.13;;;;;;;4.88;58.17;95110.97;5111805;28;20189;-62
2021/03/20 03:18:29;;;;;;;31.63;21.23;;;;;;;4.95;58.01;95122.88;5111991;28;20230;-64
2021/03/20 03:20:59;;;;;;;34.05;23.23;;;;;;;4.93;57.97;95122.31;5111764;28;20197;-62
2021/03/20 03:23:30;;;;;;;36.22;23.30;;;;;;;4.95;57.96;95125.47;5112124;28;20298;-64
2021/03/20 03:26:04;;;;;;;37.03;23.92;;;;;;;5.10;57.65;95127.72;5111322;28;20240;-62
2021/03/20 03:28:31;;;;;;;34.38;22.67;;;;;;;5.03;57.97;95120.03;5111867;28;20190;-65
2021/03/20 03:31:03;;;;;;;33.88;23.83;;;;;;;5.00;57.80;95122.22;5111228;28;20188;-63
2021/03/20 03:33:39;;;;;;;35.20;23.73;;;;;;;4.92;58.27;95119.94;5112029;28;20613;-62
2021/03/20 03:36:13;;;;;;;34.67;22.23;;;;;;;4.84;58.21;95123.59;5116740;28;20233;-64
2021/03/20 03:38:55;;;;;;;35.10;23.48;;;;;;;4.99;57.46;95128.44;5111545;28;20202;-65
2021/03/20 03:41:38;;;;;;;33.92;23.05;;;;;;;5.03;57.37;95125.22;5112846;28;20193;-64
2021/03/20 03:44:07;;;;;;;32.63;22.65;;;;;;;5.01;57.46;95139.41;5112734;28;20255;-60
2021/03/20 03:46:38;;;;;;;34.95;22.42;;;;;;;4.99;57.83;95134.44;5111929;28;20204;-64
2021/03/20 03:49:08;;;;;;;33.33;22.95;;;;;;;4.97;57.60;95122.66;5111344;28;20372;-64
2021/03/20 03:51:35;;;;;;;35.03;23.52;;;;;;;4.98;57.64;95119.84;5111132;28;20195;-65
2021/03/20 03:54:02;;;;;;;31.48;21.70;;;;;;;5.00;57.50;95122.22;5111154;28;20574;-64
2021/03/20 03:56:42;;;;;;;33.72;22.95;;;;;;;5.01;57.54;95124.63;5111013;28;20279;-65
2021/03/20 03:59:17;;;;;;;31.90;21.70;;;;;;;4.99;57.37;95121.44;5111244;28;20271;-63
2021/03/20 04:02:07;;;;;;;32.42;22.05;;;;;;;4.95;57.53;95115.09;5110868;28;20201;-63
2021/03/20 04:05:24;;;;;;;31.65;22.42;;;;;;;4.95;57.71;95117.69;5110765;28;20198;-65
2021/03/20 04:08:05;;;;;;;35.47;22.05;;;;;;;4.87;58.20;95117.97;5048241;28;20331;-64
2021/03/20 04:10:46;;;;;;;32.08;22.20;;;;;;;4.87;58.35;95115.38;5104210;28;20293;-63
2021/03/20 04:13:31;;;;;;;32.03;22.67;;;;;;;4.69;58.75;95115.34;5111251;28;20208;-64
2021/03/20 04:16:12;;;;;;;32.78;22.30;;;;;;;4.89;58.45;95120.38;5110675;28;20245;-64
2021/03/20 04:18:45;;;;;;;39.50;25.38;;;;;;;4.87;58.66;95112.75;5111370;28;20635;-65
2021/03/20 04:21:29;;;;;;;41.28;26.33;;;;;;;4.78;58.81;95118.47;5110888;28;20194;-65
2021/03/20 04:24:07;;;;;;;38.50;25.42;;;;;;;4.70;59.16;95116.94;5111136;28;20190;-64
2021/03/20 04:26:41;;;;;;;39.85;26.83;;;;;;;4.79;58.78;95123.44;5109254;28;20216;-63
2021/03/20 04:29:25;;;;;;;39.53;27.35;;;;;;;4.93;58.59;95122.31;5110488;28;20667;-63
2021/03/20 04:31:58;;;;;;;54.90;34.30;;;;;;;4.75;58.83;95124.88;5110389;28;20274;-65
2021/03/20 04:34:31;;;;;;;58.40;34.53;;;;;;;4.99;58.08;95124.06;5110690;28;20190;-65
2021/03/20 04:37:02;;;;;;;60.17;37.35;;;;;;;5.05;58.25;95130.97;5110387;28;20222;-63
2021/03/20 04:39:33;;;;;;;57.78;35.78;;;;;;;5.07;57.92;95128.16;5110487;28;20212;-65
2021/03/20 04:42:36;;;;;;;52.88;33.10;;;;;;;5.05;58.46;95136.16;5110790;28;20202;-64
2021/03/20 04:45:27;;;;;;;52.75;31.33;;;;;;;4.91;58.40;95132.09;5110330;28;20198;-65
2021/03/20 04:47:56;;;;;;;48.22;29.77;;;;;;;5.02;58.09;95123.59;5101679;28;20683;-63
2021/03/20 04:50:27;;;;;;;46.20;29.45;;;;;;;4.98;57.92;95119.84;5110188;28;20287;-63
2021/03/20 04:52:58;;;;;;;43.58;27.63;;;;;;;5.01;57.82;95109.06;5110468;28;20202;-67
2021/03/20 04:55:24;;;;;;;40.20;26.42;;;;;;;5.09;57.89;95116.53;5110041;28;20244;-66
2021/03/20 04:58:03;;;;;;;38.05;24.35;;;;;;;4.83;58.43;95116.81;5110995;28;20631;-65
2021/03/20 05:00:54;;;;;;;37.35;25.13;;;;;;;4.89;58.29;95118.53;5110266;28;20205;-63
2021/03/20 05:03:28;;;;;;;40.20;25.27;;;;;;;4.94;58.24;95118.72;5111705;28;20187;-65
2021/03/20 05:06:03;;;;;;;36.30;24.98;;;;;;;4.85;59.00;95114.78;5111926;28;20197;-63
2021/03/20 05:08:36;;;;;;;46.75;25.27;;;;;;;4.99;59.05;95123.25;5110934;28;20296;-64
2021/03/20 05:11:12;;;;;;;37.38;25.50;;;;;;;4.98;58.37;95125.03;5109900;28;20217;-62
2021/03/20 05:14:00;;;;;;;38.60;24.90;;;;;;;5.02;58.57;95136.59;5110512;28;20218;-64
2021/03/20 05:16:49;;;;;;;44.97;25.35;;;;;;;5.02;58.31;95128.00;5109853;28;20261;-62
2021/03/20 05:19:17;;;;;;;38.30;25.13;;;;;;;4.92;58.47;95120.72;5110620;28;20225;-63
2021/03/20 05:21:45;;;;;;;40.03;25.58;;;;;;;5.00;58.31;95136.00;5110320;28;20210;-68
2021/03/20 05:24:18;;;;;;;41.20;27.38;;;;;;;4.89;59.24;95136.72;5112894;28;20205;-62
2021/03/20 05:26:45;;;;;;;37.35;25.73;;;;;;;4.99;59.11;95137.03;5114173;28;20688;-64
2021/03/20 05:29:12;;;;;;;38.60;26.65;;;;;;;5.16;58.50;95132.84;5114467;28;20194;-64
2021/03/20 05:31:39;;;;;;;41.55;25.70;;;;;;;5.15;58.60;95126.06;5114092;28;20224;-65
2021/03/20 05:34:26;;;;;;;41.35;27.02;;;;;;;5.16;58.42;95122.47;5113986;28;20197;-65
2021/03/20 05:36:53;;;;;;;44.22;26.65;;;;;;;5.26;58.28;95136.75;5113765;28;20308;-63
2021/03/20 05:39:20;;;;;;;40.15;27.13;;;;;;;5.28;58.34;95134.72;5114035;28;20202;-65
2021/03/20 05:41:49;;;;;;;45.05;26.90;;;;;;;5.30;58.09;95127.50;5113357;28;20194;-64
2021/03/20 05:44:37;;;;;;;39.17;25.75;;;;;;;5.36;57.87;95131.84;5113760;28;20217;-64
2021/03/20 05:47:10;;;;;;;43.53;26.95;;;;;;;5.38;57.72;95135.03;5113868;28;20189;-64
2021/03/20 05:49:42;;;;;;;45.53;28.35;;;;;;;5.34;57.83;95136.47;5113009;28;20210;-64
2021/03/20 05:52:14;;;;;;;47.58;29.58;;;;;;;5.08;57.86;95127.94;5113894;28;20612;-65
2021/03/20 05:55:01;;;;;;;49.70;30.50;;;;;;;5.39;57.92;95139.19;5113873;28;20214;-63
2021/03/20 05:57:35;;;;;;;48.20;31.15;;;;;;;5.38;57.76;95129.84;5113329;28;20226;-65
2021/03/20 06:00:04;;;;;;;54.67;34.33;;;;;;;5.37;57.82;95138.63;5112732;28;20256;-66
2021/03/20 06:02:55;;;;;;;58.22;37.03;;;;;;;5.39;57.34;95137.41;5113892;28;20202;-64
2021/03/20 06:05:42;;;;;;;58.35;36.33;;;;;;;5.18;58.24;95138.63;5114406;28;20234;-64
2021/03/20 06:08:18;;;;;;;58.50;36.63;;;;;;;5.20;58.50;95132.44;5114262;28;20341;-66
2021/03/20 06:10:47;;;;;;;56.47;36.28;;;;;;;5.33;57.96;95132.28;5113414;28;20204;-64
2021/03/20 06:13:55;;;;;;;60.80;35.63;;;;;;;5.24;58.37;95133.59;5114122;28;20216;-66
2021/03/20 06:16:32;;;;;;;52.88;32.85;;;;;;;5.35;58.09;95130.25;5112912;28;20229;-65
2021/03/20 06:19:24;;;;;;;44.78;29.95;;;;;;;5.37;57.87;95133.44;5113563;28;20190;-64
2021/03/20 06:22:05;;;;;;;41.47;26.50;;;;;;;5.30;57.81;95138.72;5112213;28;20198;-65
2021/03/20 06:24:53;;;;;;;47.38;26.63;;;;;;;5.03;58.47;95138.19;5113009;28;20233;-67
2021/03/20 06:27:28;;;;;;;41.85;27.08;;;;;;;5.22;58.25;95136.38;5113059;28;20199;-66
2021/03/20 06:30:01;;;;;;;40.22;25.20;;;;;;;5.36;58.08;95131.84;5112951;28;20229;-66
2021/03/20 06:32:36;;;;;;;45.08;28.60;;;;;;;5.31;58.79;95132.47;5112508;28;20232;-68
2021/03/20 06:35:30;;;;;;;38.67;26.08;;;;;;;5.32;57.94;95139.28;5116452;28;20193;-66
2021/03/20 06:37:59;;;;;;;41.88;25.98;;;;;;;5.43;57.87;95142.97;5112603;28;20246;-66
2021/03/20 06:40:47;;;;;;;39.08;25.80;;;;;;;5.44;57.84;95137.53;5112507;28;20182;-68
2021/03/20 06:43:17;;;;;;;43.00;27.13;;;;;;;5.52;58.20;95146.84;5112595;28;20198;-66
2021/03/20 06:45:44;;;;;;;40.40;26.15;;;;;;;5.38;58.52;95140.22;5111762;28;20218;-64
2021/03/20 06:48:13;;;;;;;40.72;27.05;;;;;;;5.41;58.06;95150.19;5112670;28;20183;-65
2021/03/20 06:50:47;;;;;;;41.58;26.27;;;;;;;5.52;58.05;95142.47;5112540;28;20206;-64
2021/03/20 06:53:18;;;;;;;41.88;26.83;;;;;;;5.52;58.44;95146.84;5112496;28;20194;-65
2021/03/20 06:55:48;;;;;;;43.88;28.30;;;;;;;5.56;58.55;95148.00;5112117;28;20710;-64
2021/03/20 06:58:33;;;;;;;41.35;27.08;;;;;;;5.66;58.44;95145.66;5112363;28;20446;-64
2021/03/20 07:01:40;;;;;;;37.88;25.67;;;;;;;5.75;58.13;95144.38;5111661;28;20293;-63
2021/03/20 07:04:34;;;;;;;39.03;24.10;;;;;;;5.90;57.96;95142.22;5094768;28;20205;-63
2021/03/20 07:07:41;;;;;;;42.17;26.75;;;;;;;5.69;57.61;95147.84;5112306;28;20252;-64
2021/03/20 07:10:29;;;;;;;39.25;25.50;;;;;;;5.77;58.06;95152.75;5080132;28;20293;-66
2021/03/20 07:13:23;;;;;;;41.60;27.30;;;;;;;5.74;58.18;95155.78;5112284;28;20255;-62
2021/03/20 07:16:10;;;;;;;38.60;26.25;;;;;;;5.68;58.37;95146.25;5109828;28;20980;-66
2021/03/20 07:18:47;;;;;;;38.80;26.38;;;;;;;5.83;58.66;95149.31;5112164;28;20251;-63
2021/03/20 07:21:27;;;;;;;41.97;27.08;;;;;;;5.52;59.59;95147.66;5111636;28;20660;-65
2021/03/20 07:24:12;;;;;;;41.53;27.75;;;;;;;5.66;59.43;95153.47;5112356;27;20194;-65
2021/03/20 07:27:01;;;;;;;41.88;27.27;;;;;;;5.74;59.62;95150.59;5111487;28;20251;-64
2021/03/20 07:29:42;;;;;;;38.08;25.23;;;;;;;5.83;59.62;95149.31;5111647;28;20680;-65
2021/03/20 07:32:11;;;;;;;39.80;26.45;;;;;;;5.60;60.37;95143.97;5111983;28;20255;-67
2021/03/20 07:34:38;;;;;;;44.20;29.23;;;;;;;5.42;59.85;95149.94;5111223;28;20202;-66
2021/03/20 07:37:18;;;;;;;41.53;28.55;;;;;;;5.75;59.91;95141.75;5111474;28;20230;-63
2021/03/20 07:39:49;;;;;;;45.45;30.52;;;;;;;5.87;59.51;95146.06;5111233;28;20194;-68
2021/03/20 07:42:42;;;;;;;47.25;31.27;;;;;;;5.88;59.71;95146.84;5111631;28;20194;-66
2021/03/20 07:45:28;;;;;;;52.42;33.05;;;;;;;6.07;61.56;95140.59;5107633;28;20199;-69
2021/03/20 07:47:55;;;;;;;50.60;33.33;;;;;;;6.28;60.96;95147.88;5111568;28;20191;-69
2021/03/20 07:50:27;;;;;;;50.90;32.70;;;;;;;6.02;60.81;95149.03;5111275;28;20191;-65
2021/03/20 07:52:53;;;;;;;45.63;30.38;;;;;;;6.29;60.54;95144.28;5110283;28;20633;-64
2021/03/20 07:55:22;;;;;;;42.47;29.25;;;;;;;6.41;59.49;95146.88;5109250;28;20205;-62
2021/03/20 07:58:03;;;;;;;40.70;27.80;;;;;;;6.39;58.91;95143.72;5107436;28;20589;-67
2021/03/20 08:00:41;;;;;;;55.72;38.28;;;;;;;6.50;59.42;95151.56;5107185;28;20718;-69
2021/03/20 08:03:17;;;;;;;49.80;34.10;;;;;;;6.60;59.24;95146.59;5112320;28;20214;-67
2021/03/20 08:05:50;;;;;;;39.10;25.90;;;;;;;6.59;59.37;95150.22;5106432;28;20210;-66
2021/03/20 08:08:27;;;;;;;40.55;28.27;;;;;;;6.12;58.73;95143.31;5109009;27;20209;-67
2021/03/20 08:10:58;;;;;;;41.83;28.92;;;;;;;6.33;58.48;95149.81;5107377;28;20251;-66
2021/03/20 08:13:31;;;;;;;48.10;29.48;;;;;;;6.25;59.01;95153.53;5109073;28;20225;-64
2021/03/20 08:15:58;;;;;;;43.30;28.75;;;;;;;6.36;61.09;95152.78;5090240;28;20222;-64
2021/03/20 08:18:32;;;;;;;42.15;29.10;;;;;;;6.45;60.22;95161.84;5098711;28;20230;-64
2021/03/20 08:20:58;;;;;;;41.13;27.40;;;;;;;6.54;59.56;95168.31;5111003;28;20213;-64
2021/03/20 08:23:51;;;;;;;35.15;24.42;;;;;;;6.39;59.04;95156.72;5110518;28;20214;-69
2021/03/20 08:26:36;;;;;;;38.85;25.00;;;;;;;6.40;58.96;95161.72;5100316;28;20657;-67
2021/03/20 08:29:36;;;;;;;39.13;26.70;;;;;;;6.64;59.19;95173.75;5104527;28;20203;-65
2021/03/20 08:32:21;;;;;;;36.08;24.77;;;;;;;6.61;59.47;95184.63;5105416;28;20251;-66
2021/03/20 08:35:17;;;;;;;29.10;21.17;;;;;;;6.15;59.47;95174.06;5108610;28;20190;-65
2021/03/20 08:37:58;;;;;;;31.88;21.52;;;;;;;6.24;60.30;95167.53;5106705;28;20365;-68
2021/03/20 08:40:40;;;;;;;31.25;20.73;;;;;;;6.23;60.32;95163.38;5109769;28;20255;-67
2021/03/20 08:43:15;;;;;;;96.03;62.85;;;;;;;6.45;60.83;95169.66;5110370;28;20286;-69
2021/03/20 08:46:08;;;;;;;30.38;21.67;;;;;;;6.57;60.79;95178.28;5110048;28;20200;-65
2021/03/20 08:48:43;;;;;;;33.70;21.48;;;;;;;6.50;60.47;95177.59;5109745;28;20707;-65
2021/03/20 08:51:34;;;;;;;28.20;19.13;;;;;;;6.64;59.41;95173.75;5110197;28;20632;-69
2021/03/20 08:54:40;;;;;;;28.40;20.55;;;;;;;6.73;59.84;95172.41;5109578;28;20251;-64
2021/03/20 08:57:31;;;;;;;29.05;20.85;;;;;;;6.80;59.86;95170.53;5086061;28;20747;-65
2021/03/20 09:00:01;;;;;;;29.30;21.02;;;;;;;6.97;58.92;95158.41;5111326;28;20244;-63
2021/03/20 09:02:36;;;;;;;27.63;20.38;;;;;;;6.94;59.26;95161.47;5112219;28;20189;-64
2021/03/20 09:05:14;;;;;;;28.10;19.92;;;;;;;6.89;59.11;95160.56;5114812;27;20213;-66
2021/03/20 09:08:24;;;;;;;27.30;19.67;;;;;;;6.98;58.14;95170.41;5114299;28;20699;-65
2021/03/20 09:11:03;;;;;;;22.95;17.45;;;;;;;6.64;57.51;95168.56;5113517;28;20198;-64
2021/03/20 09:13:44;;;;;;;25.60;18.67;;;;;;;6.75;58.14;95175.59;5111652;28;20547;-67
2021/03/20 09:16:34;;;;;;;24.92;17.92;;;;;;;6.65;57.44;95164.94;5111451;28;20273;-66
2021/03/20 09:19:04;;;;;;;33.17;21.13;;;;;;;6.82;57.47;95159.88;5113571;28;20725;-67
2021/03/20 09:21:36;;;;;;;30.52;20.50;;;;;;;6.64;57.72;95163.34;5113733;28;20201;-64
2021/03/20 09:24:13;;;;;;;26.42;18.80;;;;;;;6.80;57.62;95162.72;5113143;28;20214;-65
2021/03/20 09:26:41;;;;;;;31.30;20.27;;;;;;;7.09;57.81;95150.59;5106763;28;20226;-63
2021/03/20 09:29:21;;;;;;;31.67;22.17;;;;;;;7.36;57.45;95150.91;5113567;28;20752;-64
2021/03/20 09:31:53;;;;;;;30.40;20.45;;;;;;;7.35;57.42;95151.94;5110645;28;20236;-65
2021/03/20 09:34:35;;;;;;;29.02;20.52;;;;;;;7.03;57.47;95152.28;5095992;28;20294;-63
2021/03/20 09:37:05;;;;;;;30.33;20.80;;;;;;;7.21;57.81;95153.19;5104174;28;20248;-65
2021/03/20 09:39:38;;;;;;;31.13;22.70;;;;;;;7.43;58.36;95154.16;5106491;28;20673;-64
2021/03/20 09:42:28;;;;;;;29.88;20.95;;;;;;;7.40;57.91;95147.63;5112792;28;20217;-63
2021/03/20 09:45:02;;;;;;;33.17;22.45;;;;;;;7.50;58.41;95141.81;5093631;28;20607;-64
2021/03/20 09:47:43;;;;;;;31.58;22.85;;;;;;;7.72;58.33;95124.53;5093473;28;20672;-62
2021/03/20 09:50:19;;;;;;;31.92;22.23;;;;;;;7.66;58.06;95122.84;5093939;28;20199;-63
2021/03/20 09:53:09;;;;;;;28.55;21.25;;;;;;;7.77;58.09;95120.19;5109024;28;20198;-64
2021/03/20 09:55:47;;;;;;;30.95;22.40;;;;;;;7.98;58.74;95123.97;5109813;28;20195;-64
2021/03/20 09:58:20;;;;;;;27.50;20.35;;;;;;;8.01;58.26;95118.31;5113699;28;20271;-65
2021/03/20 10:00:46;;;;;;;26.85;19.48;;;;;;;7.75;58.71;95121.47;5113819;28;20210;-64
2021/03/20 10:03:45;;;;;;;28.30;20.08;;;;;;;8.00;58.17;95132.34;5113536;28;20194;-64
2021/03/20 10:06:26;;;;;;;22.45;17.13;;;;;;;7.81;57.70;95125.75;5107371;28;20231;-62
2021/03/20 10:09:20;;;;;;;22.17;16.48;;;;;;;7.88;57.40;95113.38;5093077;28;20237;-63
2021/03/20 10:11:55;;;;;;;24.83;18.30;;;;;;;8.19;58.13;95110.28;5093128;28;20205;-65
2021/03/20 10:14:30;;;;;;;24.27;18.88;;;;;;;8.27;57.36;95104.69;5092618;28;20202;-63
2021/03/20 10:17:06;;;;;;;27.80;19.85;;;;;;;8.52;56.38;95099.88;5093287;28;20273;-64
2021/03/20 10:19:42;;;;;;;28.17;20.38;;;;;;;8.43;57.12;95101.28;5092808;28;20207;-64
2021/03/20 10:22:17;;;;;;;27.40;20.23;;;;;;;8.37;57.58;95101.47;5093135;28;20260;-64
2021/03/20 10:24:49;;;;;;;23.70;18.67;;;;;;;7.86;58.00;95110.19;5093115;28;20249;-67
2021/03/20 10:27:37;;;;;;;23.63;17.92;;;;;;;8.26;56.99;95107.53;5092748;28;20286;-63
2021/03/20 10:30:18;;;;;;;23.52;17.90;;;;;;;8.26;56.10;95099.69;5092545;28;20214;-64
2021/03/20 10:33:02;;;;;;;25.43;17.90;;;;;;;8.28;55.95;95095.84;5092832;28;20280;-64
2021/03/20 10:35:33;;;;;;;18.95;15.23;;;;;;;7.45;56.67;95102.59;5093012;28;20453;-64
2021/03/20 10:38:24;;;;;;;20.73;16.10;;;;;;;7.79;57.32;95096.50;5111696;28;20664;-64
2021/03/20 10:41:04;;;;;;;20.65;16.05;;;;;;;7.64;57.44;95091.00;5112443;28;20226;-65
2021/03/20 10:43:40;;;;;;;18.38;14.70;;;;;;;7.35;57.04;95091.97;5110533;28;20693;-63
2021/03/20 10:46:07;;;;;;;18.45;14.77;;;;;;;6.95;57.43;95079.69;5112873;28;20266;-64
2021/03/20 10:48:35;;;;;;;17.55;14.23;;;;;;;6.58;59.09;95096.56;5117505;28;20190;-63
2021/03/20 10:51:05;;;;;;;19.15;15.20;;;;;;;6.74;60.48;95098.50;5116486;28;20201;-63
2021/03/20 10:53:40;;;;;;;18.80;15.35;;;;;;;7.38;58.52;95091.50;5115003;28;20691;-64
2021/03/20 10:56:23;;;;;;;18.52;15.48;;;;;;;7.70;57.39;95090.06;5112793;28;20217;-65
2021/03/20 10:58:50;;;;;;;16.10;12.65;;;;;;;7.52;56.76;95077.22;5112110;27;20214;-65
2021/03/20 11:01:29;;;;;;;15.68;12.35;;;;;;;7.43;56.98;95070.75;5112725;28;20201;-64
2021/03/20 11:03:56;;;;;;;16.65;13.75;;;;;;;7.47;57.47;95069.25;5118613;28;20216;-66
2021/03/20 11:06:24;;;;;;;19.08;14.73;;;;;;;7.65;58.48;95071.69;5111898;28;20218;-64
2021/03/20 11:09:24;;;;;;;18.50;15.80;;;;;;;7.80;59.14;95054.53;5112632;28;20198;-71
2021/03/20 11:12:00;;;;;;;27.02;21.35;;;;;;;7.91;60.99;95060.72;5107440;27;20208;-67
2021/03/20 11:14:26;;;;;;;27.27;23.77;;;;;;;7.76;60.60;95068.25;5108353;28;20255;-62
2021/03/20 11:17:17;;;;;;;18.95;14.82;;;;;;;7.84;61.00;95058.25;5090934;28;20227;-64
2021/03/20 11:19:44;;;;;;;14.50;12.45;;;;;;;7.95;59.10;95067.03;5096636;28;20292;-63
2021/03/20 11:22:26;;;;;;;14.02;12.38;;;;;;;7.58;58.80;95042.38;5092843;28;20650;-65
2021/03/20 11:24:57;;;;;;;15.98;13.32;;;;;;;7.51;60.24;95055.56;5098491;28;20221;-64
2021/03/20 11:27:30;;;;;;;15.25;12.98;;;;;;;7.54;60.69;95054.28;5091534;28;20199;-63
2021/03/20 11:30:05;;;;;;;15.48;13.48;;;;;;;7.63;60.56;95047.66;5092118;28;20183;-64
2021/03/20 11:32:39;;;;;;;16.05;13.43;;;;;;;7.91;59.54;95039.84;5110779;28;20664;-61
2021/03/20 11:35:18;;;;;;;15.75;12.73;;;;;;;7.68;59.69;95029.53;5091798;28;20199;-64
2021/03/20 11:37:45;;;;;;;18.02;14.80;;;;;;;7.70;59.48;95030.09;5102140;28;20309;-64
2021/03/20 11:40:43;;;;;;;15.80;13.50;;;;;;;7.28;60.31;95024.31;5111713;28;20586;-65
2021/03/20 11:43:15;;;;;;;28.52;22.98;;;;;;;7.27;61.66;95038.38;5111308;28;20384;-67
2021/03/20 11:45:43;;;;;;;70.93;51.80;;;;;;;7.43;61.16;95036.84;5112088;27;20202;-69
2021/03/20 11:48:29;;;;;;;17.30;14.70;;;;;;;7.72;60.41;95030.66;5111605;28;20198;-66
2021/03/20 11:50:58;;;;;;;16.77;14.15;;;;;;;7.49;59.66;95030.72;5111877;28;20209;-63
2021/03/20 11:53:28;;;;;;;15.15;12.95;;;;;;;7.73;59.46;95032.22;5101328;28;20294;-63
2021/03/20 11:55:57;;;;;;;15.50;13.13;;;;;;;7.79;59.51;95021.63;5091305;28;20195;-66
2021/03/20 11:58:30;;;;;;;16.73;13.57;;;;;;;7.64;59.66;95028.41;5090546;28;20981;-65
2021/03/20 12:00:59;;;;;;;15.50;12.65;;;;;;;7.42;59.16;95020.44;5091318;28;20195;-63
2021/03/20 12:03:38;;;;;;;15.60;12.82;;;;;;;7.64;59.24;95018.78;5096246;28;20216;-63
2021/03/20 12:06:17;;;;;;;14.85;12.60;;;;;;;7.73;58.51;95024.41;5091273;28;20198;-65
2021/03/20 12:08:54;;;;;;;15.50;12.40;;;;;;;7.60;59.27;95007.22;5090568;28;20226;-65